createdAt,value
2023-02-19T00:01:48.682Z,12.11
2023-02-19T00:04:19.100Z,12.16
2023-02-19T00:06:48.355Z,12.19
2023-02-19T00:09:21.877Z,12.20
2023-02-19T00:11:50.430Z,12.22
2023-02-19T00:14:21.335Z,12.25
2023-02-19T00:16:50.542Z,12.28
2023-02-19T00:19:21.841Z,12.31
2023-02-19T00:21:52.176Z,12.32
2023-02-19T00:24:23.622Z,12.32
2023-02-19T00:26:51.958Z,12.33
2023-02-19T00:29:22.769Z,12.35
2023-02-19T00:31:51.911Z,12.37
2023-02-19T00:34:20.178Z,12.40
2023-02-19T00:36:48.573Z,12.43
2023-02-19T00:39:18.746Z,12.44
2023-02-19T00:41:48.726Z,12.46
2023-02-19T00:44:17.100Z,12.47
2023-02-19T00:46:47.700Z,12.47
2023-02-19T00:49:19.343Z,12.42
2023-02-19T00:51:48.116Z,12.39
2023-02-19T00:54:17.194Z,12.41
2023-02-19T00:56:45.894Z,12.43
2023-02-19T00:59:16.801Z,12.47
2023-02-19T01:01:45.839Z,12.50
2023-02-19T01:04:15.012Z,12.49
2023-02-19T01:06:43.565Z,12.52
2023-02-19T01:09:11.815Z,12.46
2023-02-19T01:11:40.451Z,12.44
2023-02-19T01:14:08.731Z,12.40
2023-02-19T01:16:38.426Z,12.41
2023-02-19T01:19:07.410Z,12.39
2023-02-19T01:21:35.715Z,12.41
2023-02-19T01:24:05.004Z,12.38
2023-02-19T01:26:35.116Z,12.38
2023-02-19T01:29:05.070Z,12.35
2023-02-19T01:31:34.358Z,12.36
2023-02-19T01:34:06.550Z,12.33
2023-02-19T01:36:36.921Z,12.34
2023-02-19T01:39:07.694Z,12.36
2023-02-19T01:41:39.021Z,12.34
2023-02-19T01:44:09.380Z,12.33
2023-02-19T01:46:38.799Z,12.30
2023-02-19T01:49:11.899Z,12.31
2023-02-19T01:51:46.055Z,12.31
2023-02-19T01:54:17.371Z,12.28
2023-02-19T01:56:48.383Z,12.27
2023-02-19T01:59:18.020Z,12.26
2023-02-19T02:01:46.912Z,12.27
2023-02-19T02:04:18.386Z,12.28
2023-02-19T02:06:52.220Z,12.26
2023-02-19T02:09:40.949Z,12.24
2023-02-19T02:12:09.569Z,12.22
2023-02-19T02:14:39.579Z,12.23
2023-02-19T02:17:18.259Z,12.20
2023-02-19T02:20:08.367Z,12.19
2023-02-19T02:22:43.409Z,12.19
2023-02-19T02:25:41.374Z,12.17
2023-02-19T02:28:29.464Z,12.18
2023-02-19T02:31:03.974Z,12.17
2023-02-19T02:33:38.012Z,12.18
2023-02-19T02:36:08.948Z,12.15
2023-02-19T02:38:41.763Z,12.11
2023-02-19T02:41:11.174Z,12.10
2023-02-19T02:43:40.690Z,12.05
2023-02-19T02:46:12.477Z,12.02
2023-02-19T02:48:45.603Z,11.99
2023-02-19T02:51:20.285Z,11.98
2023-02-19T02:54:20.682Z,11.98
2023-02-19T02:56:51.485Z,11.93
2023-02-19T02:59:23.480Z,11.88
2023-02-19T03:02:10.993Z,11.84
2023-02-19T03:05:06.705Z,11.83
2023-02-19T03:07:40.173Z,11.83
2023-02-19T03:10:13.671Z,11.85
2023-02-19T03:13:01.973Z,11.84
2023-02-19T03:15:52.368Z,11.78
2023-02-19T03:18:42.037Z,11.73
2023-02-19T03:21:11.535Z,11.69
2023-02-19T03:23:59.394Z,11.63
2023-02-19T03:26:28.856Z,11.58
2023-02-19T03:29:16.811Z,11.57
2023-02-19T03:31:48.994Z,11.56
2023-02-19T03:34:25.247Z,11.54
2023-02-19T03:37:04.534Z,11.52
2023-02-19T03:39:44.366Z,11.52
2023-02-19T03:42:28.384Z,11.48
2023-02-19T03:45:08.709Z,11.47
2023-02-19T03:47:49.160Z,11.46
2023-02-19T03:50:23.313Z,11.47
2023-02-19T03:53:00.385Z,11.45
2023-02-19T03:55:38.421Z,11.46
2023-02-19T03:58:13.353Z,11.44
2023-02-19T04:00:49.690Z,11.44
2023-02-19T04:03:24.492Z,11.39
2023-02-19T04:06:01.993Z,11.35
2023-02-19T04:08:33.392Z,11.30
2023-02-19T04:11:05.896Z,11.28
2023-02-19T04:13:43.105Z,11.29
2023-02-19T04:16:17.406Z,11.27
2023-02-19T04:18:50.799Z,11.29
2023-02-19T04:21:21.971Z,11.28
2023-02-19T04:23:50.942Z,11.31
2023-02-19T04:26:23.732Z,11.33
2023-02-19T04:28:51.982Z,11.32
2023-02-19T04:31:20.340Z,11.32
2023-02-19T04:33:48.626Z,11.34
2023-02-19T04:36:16.972Z,11.36
2023-02-19T04:38:46.826Z,11.36
2023-02-19T04:41:15.059Z,11.29
2023-02-19T04:43:43.253Z,11.24
2023-02-19T04:46:11.547Z,11.23
2023-02-19T04:48:39.772Z,11.23
2023-02-19T04:51:08.539Z,11.20
2023-02-19T04:53:37.289Z,11.24
2023-02-19T04:56:11.568Z,11.26
2023-02-19T04:58:40.642Z,11.24
2023-02-19T05:01:10.016Z,11.29
2023-02-19T05:03:38.714Z,11.25
2023-02-19T05:06:09.345Z,11.25
2023-02-19T05:08:38.300Z,11.23
2023-02-19T05:11:09.379Z,11.23
2023-02-19T05:13:39.641Z,11.25
2023-02-19T05:16:09.697Z,11.25
2023-02-19T05:18:37.983Z,11.22
2023-02-19T05:21:06.578Z,11.20
2023-02-19T05:23:34.800Z,11.22
2023-02-19T05:26:06.665Z,11.24
2023-02-19T05:28:35.021Z,11.26
2023-02-19T05:31:09.250Z,11.32
2023-02-19T05:33:38.198Z,11.37
2023-02-19T05:36:08.626Z,11.37
2023-02-19T05:38:37.263Z,11.36
2023-02-19T05:41:09.948Z,11.35
2023-02-19T05:43:38.971Z,11.36
2023-02-19T05:46:09.730Z,11.36
2023-02-19T05:48:38.163Z,11.36
2023-02-19T05:51:09.128Z,11.38
2023-02-19T05:53:38.155Z,11.36
2023-02-19T05:56:06.881Z,11.37
2023-02-19T05:58:35.150Z,11.32
2023-02-19T06:01:03.356Z,11.29
2023-02-19T06:03:32.974Z,11.27
2023-02-19T06:06:01.185Z,11.21
2023-02-19T06:08:29.485Z,11.19
2023-02-19T06:10:57.719Z,11.13
2023-02-19T06:13:25.898Z,11.07
2023-02-19T06:15:54.231Z,11.01
2023-02-19T06:18:22.550Z,10.93
2023-02-19T06:20:52.218Z,10.85
2023-02-19T06:23:20.499Z,10.81
2023-02-19T06:25:48.992Z,10.78
2023-02-19T06:28:17.219Z,10.77
2023-02-19T06:30:45.439Z,10.80
2023-02-19T06:33:13.653Z,10.79
2023-02-19T06:35:41.819Z,10.77
2023-02-19T06:38:11.534Z,10.79
2023-02-19T06:40:39.873Z,10.75
2023-02-19T06:43:08.811Z,10.76
2023-02-19T06:45:37.786Z,10.73
2023-02-19T06:48:06.774Z,10.66
2023-02-19T06:50:35.258Z,10.59
2023-02-19T06:53:03.559Z,10.53
2023-02-19T06:55:33.170Z,10.53
2023-02-19T06:58:01.416Z,10.54
2023-02-19T07:00:29.566Z,10.59
2023-02-19T07:02:57.875Z,10.62
2023-02-19T07:05:26.216Z,10.66
2023-02-19T07:07:54.416Z,10.66
2023-02-19T07:10:22.632Z,10.69
2023-02-19T07:12:53.106Z,10.74
2023-02-19T07:15:21.666Z,10.75
2023-02-19T07:17:49.856Z,10.79
2023-02-19T07:20:18.354Z,10.79
2023-02-19T07:22:46.769Z,10.82
2023-02-19T07:25:15.197Z,10.85
2023-02-19T07:27:43.441Z,10.87
2023-02-19T07:30:14.068Z,10.88
2023-02-19T07:32:42.747Z,10.94
2023-02-19T07:35:11.018Z,11.02
2023-02-19T07:37:39.319Z,11.09
2023-02-19T07:40:08.251Z,11.16
2023-02-19T07:42:36.495Z,11.18
2023-02-19T07:45:04.900Z,11.16
2023-02-19T07:47:34.564Z,11.14
2023-02-19T07:50:02.823Z,11.10
2023-02-19T07:52:30.995Z,11.09
2023-02-19T07:54:59.163Z,11.15
2023-02-19T07:57:29.245Z,11.18
2023-02-19T07:59:57.442Z,11.21
2023-02-19T08:02:43.099Z,11.21
2023-02-19T08:05:13.611Z,11.27
2023-02-19T08:07:41.887Z,11.24
2023-02-19T08:10:27.443Z,11.25
2023-02-19T08:13:18.273Z,11.30
2023-02-19T08:15:47.307Z,11.35
2023-02-19T08:18:16.404Z,11.36
2023-02-19T08:20:46.336Z,11.37
2023-02-19T08:23:15.181Z,11.40
2023-02-19T08:25:43.712Z,11.44
2023-02-19T08:28:13.304Z,11.47
2023-02-19T08:30:44.624Z,11.49
2023-02-19T08:33:13.949Z,11.52
2023-02-19T08:35:43.007Z,11.53
2023-02-19T08:38:13.781Z,11.56
2023-02-19T08:40:42.469Z,11.57
2023-02-19T08:43:12.534Z,11.59
2023-02-19T08:45:42.329Z,11.56
2023-02-19T08:48:11.365Z,11.51
2023-02-19T08:50:39.930Z,11.52
2023-02-19T08:53:08.333Z,11.57
2023-02-19T08:55:38.724Z,11.66
2023-02-19T08:58:07.147Z,11.68
2023-02-19T09:00:35.397Z,11.71
2023-02-19T09:03:03.608Z,11.73
2023-02-19T09:05:31.807Z,11.72
2023-02-19T09:08:00.273Z,11.63
2023-02-19T09:10:28.453Z,11.62
2023-02-19T09:12:58.103Z,11.71
2023-02-19T09:15:26.416Z,11.70
2023-02-19T09:17:54.616Z,11.70
2023-02-19T09:20:23.375Z,11.77
2023-02-19T09:22:51.944Z,11.90
2023-02-19T09:25:20.118Z,11.98
2023-02-19T09:27:48.349Z,11.99
2023-02-19T09:30:18.216Z,11.96
2023-02-19T09:32:46.540Z,11.97
2023-02-19T09:35:14.824Z,12.08
2023-02-19T09:37:43.053Z,12.11
2023-02-19T09:40:12.162Z,12.17
2023-02-19T09:42:42.930Z,12.25
2023-02-19T09:45:17.851Z,12.38
2023-02-19T09:47:47.836Z,12.56
2023-02-19T09:50:21.447Z,12.73
2023-02-19T09:52:54.133Z,12.82
2023-02-19T09:55:30.597Z,12.84
2023-02-19T09:58:01.431Z,12.92
2023-02-19T10:00:34.162Z,12.96
2023-02-19T10:03:06.598Z,13.01
2023-02-19T10:05:35.249Z,12.95
2023-02-19T10:08:09.891Z,13.09
2023-02-19T10:10:39.082Z,13.22
2023-02-19T10:13:20.303Z,13.34
2023-02-19T10:15:52.024Z,13.41
2023-02-19T10:18:24.141Z,13.45
2023-02-19T10:20:54.206Z,13.43
2023-02-19T10:23:23.170Z,13.27
2023-02-19T10:25:54.859Z,13.28
2023-02-19T10:28:26.632Z,13.33
2023-02-19T10:30:57.717Z,13.41
2023-02-19T10:33:30.820Z,13.54
2023-02-19T10:36:00.526Z,13.64
2023-02-19T10:38:30.893Z,13.74
2023-02-19T10:41:02.864Z,13.79
2023-02-19T10:43:34.210Z,13.87
2023-02-19T10:46:06.815Z,13.94
2023-02-19T10:48:41.504Z,13.93
2023-02-19T10:51:12.505Z,13.87
2023-02-19T10:53:46.822Z,13.92
2023-02-19T10:56:17.687Z,13.95
2023-02-19T10:58:47.420Z,14.09
2023-02-19T11:01:19.880Z,14.12
2023-02-19T11:03:49.890Z,14.06
2023-02-19T11:06:21.516Z,14.09
2023-02-19T11:08:54.335Z,13.84
2023-02-19T11:11:25.943Z,13.78
2023-02-19T11:13:55.812Z,13.91
2023-02-19T11:16:24.941Z,14.19
2023-02-19T11:18:58.200Z,14.41
2023-02-19T11:21:32.925Z,14.52
2023-02-19T11:24:02.905Z,14.62
2023-02-19T11:26:38.208Z,14.59
2023-02-19T11:29:19.952Z,14.48
2023-02-19T11:31:48.414Z,14.36
2023-02-19T11:34:31.701Z,14.32
2023-02-19T11:37:11.630Z,14.27
2023-02-19T11:39:42.188Z,14.43
2023-02-19T11:42:42.179Z,14.13
2023-02-19T11:45:28.167Z,14.04
2023-02-19T11:48:22.962Z,14.17
2023-02-19T11:51:06.130Z,14.31
2023-02-19T11:53:37.329Z,14.29
2023-02-19T11:56:15.611Z,14.32
2023-02-19T11:59:01.320Z,14.28
2023-02-19T12:01:51.191Z,14.14
2023-02-19T12:05:02.596Z,13.98
2023-02-19T12:08:03.351Z,13.92
2023-02-19T12:10:39.559Z,13.93
2023-02-19T12:13:17.409Z,14.08
2023-02-19T12:16:11.407Z,14.27
2023-02-19T12:19:18.886Z,14.50
2023-02-19T12:22:11.794Z,14.65
2023-02-19T12:25:24.873Z,14.64
2023-02-19T12:28:10.899Z,14.78
2023-02-19T12:31:07.374Z,14.85
2023-02-19T12:33:58.712Z,14.93
2023-02-19T12:36:36.752Z,15.06
2023-02-19T12:39:15.935Z,14.98
2023-02-19T12:41:53.223Z,14.91
2023-02-19T12:44:28.221Z,14.88
2023-02-19T12:47:01.373Z,14.86
2023-02-19T12:49:34.727Z,14.74
2023-02-19T12:52:08.372Z,14.52
2023-02-19T12:54:41.564Z,14.53
2023-02-19T12:57:15.233Z,14.40
2023-02-19T12:59:47.872Z,14.31
2023-02-19T13:02:20.675Z,14.31
2023-02-19T13:04:57.778Z,14.43
2023-02-19T13:07:34.422Z,14.54
2023-02-19T13:10:16.684Z,14.69
2023-02-19T13:12:48.226Z,14.76
2023-02-19T13:15:20.180Z,14.79
2023-02-19T13:17:52.514Z,14.85
2023-02-19T13:20:27.368Z,14.89
2023-02-19T13:23:19.918Z,14.79
2023-02-19T13:26:05.646Z,14.88
2023-02-19T13:28:51.454Z,15.01
2023-02-19T13:31:39.508Z,15.13
2023-02-19T13:34:21.359Z,15.20
2023-02-19T13:36:50.367Z,15.21
2023-02-19T13:39:20.884Z,15.18
2023-02-19T13:41:52.835Z,15.12
2023-02-19T13:44:26.742Z,15.02
2023-02-19T13:46:55.127Z,14.87
2023-02-19T13:49:42.207Z,14.82
2023-02-19T13:52:41.910Z,14.68
2023-02-19T13:55:49.908Z,14.51
2023-02-19T13:58:37.458Z,14.20
2023-02-19T14:01:08.879Z,13.99
2023-02-19T14:03:50.978Z,13.73
2023-02-19T14:06:19.223Z,13.62
2023-02-19T14:08:50.580Z,13.58
2023-02-19T14:11:39.594Z,13.50
2023-02-19T14:14:28.407Z,13.62
2023-02-19T14:17:04.751Z,13.72
2023-02-19T14:19:52.955Z,13.63
2023-02-19T14:23:03.887Z,13.62
2023-02-19T14:25:42.939Z,13.75
2023-02-19T14:28:46.387Z,13.85
2023-02-19T14:31:24.144Z,13.90
2023-02-19T14:33:56.279Z,13.83
2023-02-19T14:36:45.327Z,13.64
2023-02-19T14:41:47.905Z,13.48
2023-02-19T14:44:20.630Z,13.41
2023-02-19T14:46:55.833Z,13.49
2023-02-19T14:49:31.606Z,13.61
2023-02-19T14:52:04.345Z,13.58
2023-02-19T14:54:45.433Z,13.46
2023-02-19T14:57:19.039Z,13.43
2023-02-19T14:59:55.644Z,13.34
2023-02-19T15:02:26.178Z,13.35
2023-02-19T15:04:56.365Z,13.32
2023-02-19T15:07:30.062Z,13.22
2023-02-19T15:10:05.565Z,13.08
2023-02-19T15:12:41.256Z,12.88
2023-02-19T15:15:10.440Z,12.69
2023-02-19T15:17:42.337Z,12.62
2023-02-19T15:20:18.412Z,12.57
2023-02-19T15:22:47.454Z,12.59
2023-02-19T15:25:19.299Z,12.59
2023-02-19T15:27:47.756Z,12.56
2023-02-19T15:30:24.544Z,12.50
2023-02-19T15:32:55.263Z,12.42
2023-02-19T15:35:26.463Z,12.40
2023-02-19T15:37:56.323Z,12.51
2023-02-19T15:40:30.384Z,12.68
2023-02-19T15:42:59.884Z,12.76
2023-02-19T15:45:32.752Z,12.70
2023-02-19T15:48:05.999Z,12.62
2023-02-19T15:50:37.627Z,12.50
2023-02-19T15:53:10.330Z,12.48
2023-02-19T15:55:42.861Z,12.54
2023-02-19T15:58:17.533Z,12.67
2023-02-19T16:00:49.925Z,12.73
2023-02-19T16:03:20.007Z,12.66
2023-02-19T16:06:00.518Z,12.73
2023-02-19T16:08:31.448Z,12.76
2023-02-19T16:11:01.249Z,12.74
2023-02-19T16:13:31.474Z,12.71
2023-02-19T16:16:14.300Z,12.66
2023-02-19T16:18:46.742Z,12.55
2023-02-19T16:21:21.857Z,12.50
2023-02-19T16:23:54.654Z,12.44
2023-02-19T16:26:23.210Z,12.35
2023-02-19T16:28:53.490Z,12.32
2023-02-19T16:31:24.001Z,12.20
2023-02-19T16:33:52.800Z,12.08
2023-02-19T16:36:27.165Z,11.98
2023-02-19T16:39:14.285Z,11.88
2023-02-19T16:42:14.649Z,11.89
2023-02-19T16:44:43.928Z,11.88
2023-02-19T16:47:21.779Z,11.89
2023-02-19T16:49:50.280Z,11.90
2023-02-19T16:52:18.642Z,11.97
2023-02-19T16:54:48.290Z,11.96
2023-02-19T16:57:18.404Z,11.85
2023-02-19T16:59:46.944Z,11.87
2023-02-19T17:02:20.910Z,11.95
2023-02-19T17:04:50.059Z,12.01
2023-02-19T17:07:19.893Z,11.97
2023-02-19T17:09:48.352Z,11.85
2023-02-19T17:12:19.244Z,11.78
2023-02-19T17:14:47.434Z,11.72
2023-02-19T17:17:15.675Z,11.71
2023-02-19T17:19:43.868Z,11.70
2023-02-19T17:22:16.887Z,11.69
2023-02-19T17:24:46.233Z,11.68
2023-02-19T17:27:14.706Z,11.69
2023-02-19T17:29:44.536Z,11.76
2023-02-19T17:32:14.555Z,11.80
2023-02-19T17:34:43.065Z,11.83
2023-02-19T17:37:11.410Z,11.84
2023-02-19T17:39:39.636Z,11.84
2023-02-19T17:42:08.360Z,11.85
2023-02-19T17:44:36.606Z,11.89
2023-02-19T17:47:07.180Z,11.93
2023-02-19T17:49:36.438Z,11.94
2023-02-19T17:52:04.741Z,11.89
2023-02-19T17:54:32.927Z,11.88
2023-02-19T17:57:01.454Z,11.81
2023-02-19T17:59:29.736Z,11.79
2023-02-19T18:01:57.916Z,11.75
2023-02-19T18:04:27.564Z,11.61
2023-02-19T18:06:56.000Z,11.59
2023-02-19T18:09:24.211Z,11.62
2023-02-19T18:11:52.442Z,11.69
2023-02-19T18:14:20.761Z,11.70
2023-02-19T18:16:50.489Z,11.70
2023-02-19T18:19:19.130Z,11.67
2023-02-19T18:21:48.744Z,11.58
2023-02-19T18:24:16.958Z,11.52
2023-02-19T18:26:45.344Z,11.51
2023-02-19T18:29:14.264Z,11.53
2023-02-19T18:31:42.541Z,11.51
2023-02-19T18:34:19.242Z,11.43
2023-02-19T18:36:50.304Z,11.37
2023-02-19T18:39:18.580Z,11.31
2023-02-19T18:41:50.175Z,11.21
2023-02-19T18:44:20.189Z,11.04
2023-02-19T18:46:48.668Z,10.85
2023-02-19T18:49:17.360Z,10.68
2023-02-19T18:51:45.721Z,10.53
2023-02-19T18:54:15.588Z,10.41
2023-02-19T18:56:44.917Z,10.30
2023-02-19T18:59:13.769Z,10.21
2023-02-19T19:01:42.271Z,10.08
2023-02-19T19:04:10.501Z,9.99
2023-02-19T19:06:38.722Z,9.88
2023-02-19T19:09:07.685Z,9.78
2023-02-19T19:11:38.079Z,9.70
2023-02-19T19:14:06.299Z,9.63
2023-02-19T19:16:34.884Z,9.58
2023-02-19T19:19:03.702Z,9.52
2023-02-19T19:21:32.307Z,9.50
2023-02-19T19:24:00.578Z,9.46
2023-02-19T19:26:28.794Z,9.46
2023-02-19T19:28:58.510Z,9.44
2023-02-19T19:31:27.078Z,9.42
2023-02-19T19:33:55.291Z,9.41
2023-02-19T19:36:24.276Z,9.45
2023-02-19T19:38:52.546Z,9.45
2023-02-19T19:41:21.536Z,9.46
2023-02-19T19:43:49.937Z,9.51
2023-02-19T19:46:20.769Z,9.56
2023-02-19T19:48:49.917Z,9.56
2023-02-19T19:51:18.775Z,9.58
2023-02-19T19:53:49.133Z,9.59
2023-02-19T19:56:18.209Z,9.63
2023-02-19T19:58:46.412Z,9.64
2023-02-19T20:01:15.184Z,9.68
2023-02-19T20:03:44.809Z,9.69
2023-02-19T20:06:13.089Z,9.72
2023-02-19T20:08:41.345Z,9.78
2023-02-19T20:11:11.817Z,9.79
2023-02-19T20:13:40.376Z,9.78
2023-02-19T20:16:11.058Z,9.80
2023-02-19T20:18:39.381Z,9.79
2023-02-19T20:21:11.617Z,9.76
2023-02-19T20:23:41.633Z,9.69
2023-02-19T20:26:10.199Z,9.66
2023-02-19T20:28:38.526Z,9.65
2023-02-19T20:31:09.359Z,9.68
2023-02-19T20:33:37.684Z,9.68
2023-02-19T20:36:07.281Z,9.69
2023-02-19T20:38:36.946Z,9.71
2023-02-19T20:41:05.372Z,9.72
2023-02-19T20:43:33.553Z,9.73
2023-02-19T20:46:01.714Z,9.75
2023-02-19T20:48:29.977Z,9.73
2023-02-19T20:50:59.651Z,9.69
2023-02-19T20:53:28.382Z,9.66
2023-02-19T20:55:58.132Z,9.58
2023-02-19T20:58:27.012Z,9.51
2023-02-19T21:00:55.921Z,9.40
2023-02-19T21:03:24.158Z,9.29
2023-02-19T21:05:52.335Z,9.18
2023-02-19T21:08:20.672Z,9.09
2023-02-19T21:10:49.053Z,8.95
2023-02-19T21:13:18.707Z,8.85
2023-02-19T21:15:47.134Z,8.80
2023-02-19T21:18:16.455Z,8.80
2023-02-19T21:20:45.433Z,8.87
2023-02-19T21:23:14.032Z,8.95
2023-02-19T21:25:42.304Z,9.02
2023-02-19T21:28:10.946Z,9.02
2023-02-19T21:30:40.587Z,8.97
2023-02-19T21:33:08.894Z,8.94
2023-02-19T21:35:37.156Z,8.92
2023-02-19T21:38:05.617Z,8.92
2023-02-19T21:40:34.271Z,8.93
2023-02-19T21:43:02.634Z,8.98
2023-02-19T21:45:31.007Z,9.06
2023-02-19T21:48:00.631Z,9.12
2023-02-19T21:50:28.836Z,9.16
2023-02-19T21:52:57.092Z,9.23
2023-02-19T21:55:25.347Z,9.29
2023-02-19T21:57:54.578Z,9.29
2023-02-19T22:00:23.321Z,9.24
2023-02-19T22:02:51.858Z,9.16
2023-02-19T22:05:21.615Z,9.06
2023-02-19T22:07:50.208Z,8.96
2023-02-19T22:10:18.906Z,8.85
2023-02-19T22:12:47.795Z,8.70
2023-02-19T22:15:16.386Z,8.57
2023-02-19T22:17:44.550Z,8.49
2023-02-19T22:20:13.119Z,8.48
2023-02-19T22:22:43.512Z,8.54
2023-02-19T22:25:11.716Z,8.59
2023-02-19T22:27:40.035Z,8.69
2023-02-19T22:30:09.284Z,8.78
2023-02-19T22:32:37.961Z,8.79
2023-02-19T22:35:06.675Z,8.81
2023-02-19T22:37:34.869Z,8.83
2023-02-19T22:40:04.777Z,8.88
2023-02-19T22:42:35.648Z,8.95
2023-02-19T22:45:04.195Z,9.02
2023-02-19T22:47:32.735Z,9.06
2023-02-19T22:50:01.037Z,9.08
2023-02-19T22:52:29.236Z,9.14
2023-02-19T22:54:58.071Z,9.19
2023-02-19T22:57:28.786Z,9.23
2023-02-19T22:59:57.000Z,9.27
2023-02-19T23:02:25.255Z,9.30
2023-02-19T23:04:53.515Z,9.33
2023-02-19T23:07:21.679Z,9.28
2023-02-19T23:09:49.899Z,9.27
2023-02-19T23:12:18.290Z,9.25
2023-02-19T23:14:48.842Z,9.30
2023-02-19T23:17:17.051Z,9.38
2023-02-19T23:19:45.301Z,9.46
2023-02-19T23:22:13.679Z,9.48
2023-02-19T23:24:41.835Z,9.52
2023-02-19T23:27:10.092Z,9.58
2023-02-19T23:29:38.309Z,9.62
2023-02-19T23:32:08.111Z,9.64
2023-02-19T23:34:36.344Z,9.64
2023-02-19T23:37:05.625Z,9.65
2023-02-19T23:39:34.058Z,9.65
2023-02-19T23:42:02.230Z,9.66
2023-02-19T23:44:30.471Z,9.70
2023-02-19T23:46:58.691Z,9.72
2023-02-19T23:49:28.264Z,9.76
2023-02-19T23:51:56.429Z,9.82
2023-02-19T23:54:24.649Z,9.85
2023-02-19T23:56:52.837Z,9.90
2023-02-19T23:59:21.120Z,9.97
